createdAt,value
2023-01-24T00:00:25.176Z,102611.67
2023-01-24T00:02:53.160Z,102609.65
2023-01-24T00:05:21.255Z,102611.78
2023-01-24T00:08:10.792Z,102612.35
2023-01-24T00:11:27.399Z,102612.09
2023-01-24T00:14:25.892Z,102610.42
2023-01-24T00:17:55.313Z,102609.17
2023-01-24T00:20:27.601Z,102607.44
2023-01-24T00:22:58.412Z,102605.66
2023-01-24T00:25:25.459Z,102603.67
2023-01-24T00:27:52.668Z,102604.48
2023-01-24T00:30:43.261Z,102600.91
2023-01-24T00:33:34.727Z,102597.31
2023-01-24T00:36:29.634Z,102597.86
2023-01-24T00:39:08.055Z,102598.16
2023-01-24T00:42:10.573Z,102597.77
2023-01-24T00:44:38.883Z,102595.15
2023-01-24T00:47:08.970Z,102596.29
2023-01-24T00:49:38.743Z,102599.35
2023-01-24T00:52:31.142Z,102596.36
2023-01-24T00:54:59.252Z,102598.96
2023-01-24T00:57:26.569Z,102600.31
2023-01-24T00:59:55.359Z,102601.71
2023-01-24T01:02:25.302Z,102602.63
2023-01-24T01:04:53.678Z,102603.40
2023-01-24T01:07:24.277Z,102602.97
2023-01-24T01:09:51.467Z,102602.77
2023-01-24T01:12:19.292Z,102604.31
2023-01-24T01:14:47.251Z,102603.45
2023-01-24T01:17:14.856Z,102602.94
2023-01-24T01:19:45.998Z,102599.71
2023-01-24T01:22:13.371Z,102601.92
2023-01-24T01:24:41.630Z,102607.88
2023-01-24T01:27:12.590Z,102601.75
2023-01-24T01:29:40.354Z,102603.73
2023-01-24T01:32:28.943Z,102606.48
2023-01-24T01:34:56.965Z,102607.20
2023-01-24T01:37:28.163Z,102606.63
2023-01-24T01:39:57.000Z,102607.11
2023-01-24T01:42:56.698Z,102604.40
2023-01-24T01:46:11.167Z,102603.32
2023-01-24T01:48:47.755Z,102598.34
2023-01-24T01:51:18.935Z,102602.34
2023-01-24T01:53:50.946Z,102599.01
2023-01-24T01:56:47.903Z,102598.13
2023-01-24T01:59:17.353Z,102595.71
2023-01-24T02:01:47.043Z,102598.45
2023-01-24T02:04:46.203Z,102595.80
2023-01-24T02:07:39.217Z,102596.48
2023-01-24T02:10:07.542Z,102595.89
2023-01-24T02:12:47.089Z,102595.23
2023-01-24T02:15:35.819Z,102590.33
2023-01-24T02:18:07.149Z,102584.80
2023-01-24T02:20:42.799Z,102580.65
2023-01-24T02:23:26.017Z,102577.52
2023-01-24T02:26:16.989Z,102576.26
2023-01-24T02:29:11.758Z,102569.13
2023-01-24T02:32:03.481Z,102568.55
2023-01-24T02:34:32.602Z,102568.86
2023-01-24T02:37:05.300Z,102573.17
2023-01-24T02:40:03.817Z,102572.54
2023-01-24T02:42:35.536Z,102574.77
2023-01-24T02:45:43.487Z,102576.97
2023-01-24T02:48:10.627Z,102569.05
2023-01-24T02:50:55.963Z,102574.63
2023-01-24T02:53:34.235Z,102569.95
2023-01-24T02:56:22.590Z,102575.38
2023-01-24T02:58:52.083Z,102575.81
2023-01-24T03:01:21.226Z,102580.48
2023-01-24T03:03:54.049Z,102581.36
2023-01-24T03:07:31.499Z,102587.54
2023-01-24T03:10:00.066Z,102588.73
2023-01-24T03:12:48.113Z,102589.85
2023-01-24T03:15:33.851Z,102586.02
2023-01-24T03:18:46.816Z,102590.94
2023-01-24T03:21:32.821Z,102591.27
2023-01-24T03:24:18.881Z,102592.85
2023-01-24T03:27:09.930Z,102588.66
2023-01-24T03:29:56.062Z,102590.05
2023-01-24T03:32:43.118Z,102591.51
2023-01-24T03:35:58.151Z,102585.84
2023-01-24T03:38:47.865Z,102588.84
2023-01-24T03:41:18.059Z,102589.23
2023-01-24T03:43:47.763Z,102590.64
2023-01-24T03:46:17.156Z,102591.14
2023-01-24T03:48:55.909Z,102588.04
2023-01-24T03:52:03.239Z,102592.02
2023-01-24T03:54:34.413Z,102584.73
2023-01-24T03:57:04.990Z,102582.98
2023-01-24T03:59:33.391Z,102585.00
2023-01-24T04:02:02.130Z,102589.41
2023-01-24T04:05:12.065Z,102589.27
2023-01-24T04:07:40.419Z,102591.19
2023-01-24T04:10:10.878Z,102596.69
2023-01-24T04:12:43.014Z,102598.40
2023-01-24T04:15:17.806Z,102600.98
2023-01-24T04:18:05.911Z,102604.73
2023-01-24T04:20:36.226Z,102603.25
2023-01-24T04:23:08.303Z,102601.09
2023-01-24T04:25:36.056Z,102603.58
2023-01-24T04:28:04.398Z,102606.26
2023-01-24T04:30:36.006Z,102603.89
2023-01-24T04:33:35.414Z,102600.64
2023-01-24T04:36:29.638Z,102596.27
2023-01-24T04:39:41.268Z,102598.48
2023-01-24T04:42:30.393Z,102598.59
2023-01-24T04:44:59.941Z,102597.28
2023-01-24T04:47:27.452Z,102598.41
2023-01-24T04:49:56.372Z,102604.52
2023-01-24T04:52:27.210Z,102603.89
2023-01-24T04:55:03.808Z,102607.20
2023-01-24T04:57:36.594Z,102599.63
2023-01-24T05:00:06.828Z,102599.56
2023-01-24T05:02:37.124Z,102606.25
2023-01-24T05:05:07.322Z,102603.99
2023-01-24T05:07:40.157Z,102605.98
2023-01-24T05:10:15.237Z,102601.71
2023-01-24T05:12:45.092Z,102605.04
2023-01-24T05:15:39.350Z,102609.88
2023-01-24T05:18:13.278Z,102610.50
2023-01-24T05:20:41.912Z,102606.34
2023-01-24T05:26:31.022Z,102608.92
2023-01-24T05:29:06.861Z,102611.02
2023-01-24T05:31:54.794Z,102613.56
2023-01-24T05:34:23.365Z,102611.63
2023-01-24T05:42:14.449Z,102618.36
2023-01-24T05:44:47.348Z,102621.21
